createdAt,value
2022-08-06T00:00:06.858Z,99.90
2022-08-06T00:02:35.106Z,99.90
2022-08-06T00:05:05.905Z,99.90
2022-08-06T00:07:45.038Z,99.90
2022-08-06T00:10:29.181Z,99.90
2022-08-06T00:12:57.454Z,99.90
2022-08-06T00:16:06.759Z,99.90
2022-08-06T00:18:12.768Z,99.90
2022-08-06T00:20:42.414Z,99.90
2022-08-06T00:23:12.437Z,99.90
2022-08-06T00:25:52.399Z,99.90
2022-08-06T00:28:30.737Z,99.90
2022-08-06T00:31:01.081Z,99.90
2022-08-06T00:33:44.374Z,99.90
2022-08-06T00:36:25.082Z,99.90
2022-08-06T00:38:52.461Z,99.90
2022-08-06T00:41:19.975Z,99.90
2022-08-06T00:43:49.823Z,99.90
2022-08-06T00:46:16.771Z,99.90
2022-08-06T00:48:54.104Z,99.90
2022-08-06T00:51:22.402Z,99.90
2022-08-06T00:53:49.734Z,99.90
2022-08-06T00:56:26.803Z,99.90
2022-08-06T00:59:00.899Z,99.90
2022-08-06T01:01:32.697Z,99.90
2022-08-06T01:04:12.776Z,99.90
2022-08-06T01:06:55.708Z,99.90
2022-08-06T01:09:25.019Z,99.90
2022-08-06T01:11:52.183Z,99.90
2022-08-06T01:14:38.372Z,99.90
2022-08-06T01:17:19.194Z,99.90
2022-08-06T01:21:56.465Z,99.90
2022-08-06T01:23:49.623Z,99.90
2022-08-06T01:26:54.405Z,99.90
2022-08-06T01:29:36.222Z,99.90
2022-08-06T01:32:06.412Z,99.90
2022-08-06T01:34:39.046Z,99.90
2022-08-06T01:37:23.853Z,99.90
2022-08-06T01:40:02.791Z,99.90
2022-08-06T01:42:36.033Z,99.90
2022-08-06T01:45:05.836Z,99.90
2022-08-06T01:47:53.724Z,99.90
2022-08-06T01:50:28.782Z,99.90
2022-08-06T01:52:59.820Z,99.90
2022-08-06T01:55:56.087Z,99.90
2022-08-06T01:58:27.645Z,99.90
2022-08-06T02:01:01.242Z,99.90
2022-08-06T02:03:50.189Z,99.90
2022-08-06T02:06:33.759Z,99.90
2022-08-06T02:09:16.320Z,99.90
2022-08-06T02:12:21.853Z,99.90
2022-08-06T02:15:00.690Z,99.90
2022-08-06T02:17:53.809Z,99.90
2022-08-06T02:20:37.088Z,99.90
2022-08-06T02:23:08.759Z,99.90
2022-08-06T02:25:41.340Z,99.90
2022-08-06T02:28:09.679Z,99.90
2022-08-06T02:30:42.558Z,99.90
2022-08-06T02:33:10.867Z,99.90
2022-08-06T02:35:43.613Z,99.90
2022-08-06T02:38:28.553Z,99.90
2022-08-06T02:41:05.347Z,99.90
2022-08-06T02:43:37.751Z,99.90
2022-08-06T02:46:48.072Z,99.90
2022-08-06T02:49:25.643Z,99.90
2022-08-06T02:52:17.906Z,99.90
2022-08-06T02:54:56.111Z,99.90
2022-08-06T02:57:37.898Z,99.90
2022-08-06T03:00:15.775Z,99.90
2022-08-06T03:02:46.303Z,99.90
2022-08-06T03:05:19.936Z,99.90
2022-08-06T03:08:10.767Z,99.90
2022-08-06T03:10:38.345Z,99.90
2022-08-06T03:13:10.823Z,99.90
2022-08-06T03:15:59.676Z,99.90
2022-08-06T03:18:28.724Z,99.90
2022-08-06T03:20:57.583Z,99.90
2022-08-06T03:23:27.490Z,99.90
2022-08-06T03:25:56.339Z,99.90
2022-08-06T03:28:25.002Z,99.90
2022-08-06T03:30:55.463Z,99.90
2022-08-06T03:33:41.805Z,99.90
2022-08-06T03:36:11.731Z,99.90
2022-08-06T03:38:54.284Z,99.90
2022-08-06T03:41:21.688Z,99.90
2022-08-06T03:44:03.191Z,99.90
2022-08-06T03:46:45.497Z,99.90
2022-08-06T03:49:21.022Z,99.90
2022-08-06T03:51:55.766Z,99.90
2022-08-06T03:54:30.917Z,99.90
2022-08-06T03:57:08.487Z,99.90
2022-08-06T03:59:57.505Z,99.90
2022-08-06T04:02:37.219Z,99.90
2022-08-06T04:05:21.110Z,99.90
2022-08-06T04:07:54.279Z,99.90
2022-08-06T04:10:34.141Z,99.90
2022-08-06T04:13:38.645Z,99.90
2022-08-06T04:15:53.611Z,99.90
2022-08-06T04:18:28.135Z,99.90
2022-08-06T04:21:19.951Z,99.90
2022-08-06T04:23:45.259Z,99.90
2022-08-06T04:26:15.704Z,99.90
2022-08-06T04:28:53.129Z,99.90
2022-08-06T04:32:03.146Z,99.90
2022-08-06T04:34:18.690Z,99.90
2022-08-06T04:36:46.583Z,99.90
2022-08-06T04:39:25.369Z,99.90
2022-08-06T04:42:05.901Z,99.90
2022-08-06T04:44:33.514Z,99.90
2022-08-06T04:47:01.421Z,99.90
2022-08-06T04:49:58.062Z,99.90
2022-08-06T04:52:45.413Z,99.90
2022-08-06T04:55:23.726Z,99.90
2022-08-06T04:57:57.027Z,99.90
2022-08-06T05:00:59.790Z,99.90
2022-08-06T05:04:05.385Z,99.90
2022-08-06T05:06:19.048Z,99.90
2022-08-06T05:08:52.875Z,99.90
2022-08-06T05:11:29.916Z,99.90
2022-08-06T05:14:02.259Z,99.90
2022-08-06T05:16:30.527Z,99.90
2022-08-06T05:19:19.578Z,99.90
2022-08-06T05:22:05.568Z,99.90
2022-08-06T05:25:01.125Z,99.90
2022-08-06T05:27:53.334Z,99.90
2022-08-06T05:30:13.745Z,99.90
2022-08-06T05:32:53.650Z,99.90
2022-08-06T05:35:23.147Z,99.90
2022-08-06T05:38:07.444Z,99.90
2022-08-06T05:40:53.988Z,99.90
2022-08-06T05:43:25.894Z,99.90
2022-08-06T05:45:57.824Z,99.90
2022-08-06T05:48:29.820Z,99.90
2022-08-06T05:51:08.699Z,99.90
2022-08-06T05:54:03.718Z,99.90
2022-08-06T05:56:39.388Z,99.90
2022-08-06T05:59:29.173Z,99.90
2022-08-06T06:02:00.165Z,99.90
2022-08-06T06:04:33.421Z,99.90
2022-08-06T06:07:04.357Z,99.90
2022-08-06T06:09:56.247Z,99.90
2022-08-06T06:12:21.204Z,99.90
2022-08-06T06:14:49.741Z,99.90
2022-08-06T06:17:25.094Z,99.90
2022-08-06T06:21:03.431Z,99.90
2022-08-06T06:23:34.827Z,99.90
2022-08-06T06:26:33.010Z,99.90
2022-08-06T06:30:02.196Z,99.90
2022-08-06T06:32:31.987Z,99.90
2022-08-06T06:35:13.388Z,99.90
2022-08-06T06:37:54.985Z,99.90
2022-08-06T06:40:47.033Z,99.90
2022-08-06T06:43:57.332Z,99.90
2022-08-06T06:46:44.929Z,99.90
2022-08-06T06:50:00.843Z,99.90
2022-08-06T06:52:34.404Z,99.90
2022-08-06T06:55:18.818Z,99.90
2022-08-06T06:57:52.364Z,99.90
2022-08-06T07:00:43.739Z,99.90
2022-08-06T07:03:09.533Z,99.90
2022-08-06T07:06:05.410Z,99.90
2022-08-06T07:08:31.833Z,99.90
2022-08-06T07:11:06.539Z,99.90
2022-08-06T07:13:48.057Z,99.90
2022-08-06T07:16:34.575Z,99.90
2022-08-06T07:19:05.305Z,99.90
2022-08-06T07:21:32.734Z,99.90
2022-08-06T07:24:05.775Z,99.90
2022-08-06T07:26:38.228Z,99.90
2022-08-06T07:29:48.353Z,99.90
2022-08-06T07:32:05.720Z,99.90
2022-08-06T07:34:34.437Z,99.90
2022-08-06T07:37:02.190Z,99.90
2022-08-06T07:39:39.774Z,99.90
2022-08-06T07:42:13.792Z,99.90
2022-08-06T07:44:55.890Z,99.90
2022-08-06T07:47:41.545Z,99.90
2022-08-06T07:50:18.203Z,99.90
2022-08-06T07:52:52.813Z,99.90
2022-08-06T07:55:25.960Z,99.90
2022-08-06T07:57:59.457Z,99.90
2022-08-06T08:00:28.702Z,99.90
2022-08-06T08:03:19.329Z,99.90
2022-08-06T08:06:23.573Z,99.90
2022-08-06T08:09:10.647Z,99.90
2022-08-06T08:12:33.703Z,99.90
2022-08-06T08:14:28.921Z,99.50
2022-08-06T08:16:55.946Z,98.70
2022-08-06T08:19:34.634Z,99.20
2022-08-06T08:22:18.771Z,99.90
2022-08-06T08:24:54.232Z,99.90
2022-08-06T08:27:23.738Z,99.90
2022-08-06T08:29:56.632Z,99.90
2022-08-06T08:32:24.261Z,99.00
2022-08-06T08:34:53.000Z,98.40
2022-08-06T08:37:20.713Z,98.20
2022-08-06T08:39:47.922Z,97.90
2022-08-06T08:42:32.153Z,97.60
2022-08-06T08:45:02.901Z,95.60
2022-08-06T08:47:46.588Z,95.80
2022-08-06T08:50:20.742Z,96.00
2022-08-06T08:52:51.196Z,96.40
2022-08-06T08:57:02.184Z,95.80
2022-08-06T08:58:37.479Z,95.50
2022-08-06T09:00:56.564Z,95.60
2022-08-06T09:03:23.609Z,95.40
2022-08-06T09:05:53.450Z,94.70
2022-08-06T09:09:01.831Z,94.10
2022-08-06T09:11:11.832Z,94.10
2022-08-06T09:13:50.833Z,93.40
2022-08-06T09:16:19.660Z,92.80
2022-08-06T09:19:03.134Z,92.50
2022-08-06T09:21:33.598Z,92.90
2022-08-06T09:24:04.929Z,92.80
2022-08-06T09:26:54.019Z,92.20
2022-08-06T09:29:31.830Z,91.90
2022-08-06T09:32:05.297Z,91.80
2022-08-06T09:34:46.817Z,91.00
2022-08-06T09:37:28.463Z,90.00
2022-08-06T09:40:17.160Z,90.30
2022-08-06T09:42:48.133Z,89.70
2022-08-06T09:45:17.869Z,90.00
2022-08-06T09:47:58.385Z,90.40
2022-08-06T09:50:44.396Z,90.50
2022-08-06T09:53:15.010Z,90.40
2022-08-06T09:55:42.615Z,90.50
2022-08-06T09:58:10.006Z,87.20
2022-08-06T10:00:39.272Z,87.60
2022-08-06T10:04:06.476Z,85.90
2022-08-06T10:06:10.932Z,85.50
2022-08-06T10:08:43.067Z,85.60
2022-08-06T10:11:09.826Z,85.90
2022-08-06T10:13:44.605Z,85.10
2022-08-06T10:16:21.370Z,84.00
2022-08-06T10:18:57.402Z,84.10
2022-08-06T10:21:33.460Z,83.70
2022-08-06T10:24:10.382Z,84.80
2022-08-06T10:26:37.552Z,85.90
2022-08-06T10:29:06.814Z,86.50
2022-08-06T10:31:36.823Z,87.40
2022-08-06T10:34:23.858Z,87.90
2022-08-06T10:37:10.970Z,86.30
2022-08-06T10:40:08.543Z,82.50
2022-08-06T10:42:37.197Z,83.10
2022-08-06T10:45:13.168Z,83.90
2022-08-06T10:48:58.967Z,82.50
2022-08-06T10:50:39.025Z,81.70
2022-08-06T10:53:59.318Z,81.50
2022-08-06T10:56:08.835Z,82.00
2022-08-06T10:58:37.816Z,82.50
2022-08-06T11:01:09.433Z,80.60
2022-08-06T11:04:04.899Z,79.50
2022-08-06T11:06:53.086Z,79.30
2022-08-06T11:10:02.017Z,79.20
2022-08-06T11:12:51.276Z,77.50
2022-08-06T11:15:22.493Z,77.50
2022-08-06T11:17:53.940Z,77.10
2022-08-06T11:20:32.503Z,76.80
2022-08-06T11:23:00.901Z,75.80
2022-08-06T11:25:47.450Z,76.10
2022-08-06T11:28:16.977Z,76.60
2022-08-06T11:30:47.870Z,75.50
2022-08-06T11:33:18.957Z,74.10
2022-08-06T11:35:53.373Z,74.20
2022-08-06T11:38:51.747Z,73.50
2022-08-06T11:41:55.316Z,72.70
2022-08-06T11:44:17.190Z,72.90
2022-08-06T11:46:48.125Z,73.70
2022-08-06T11:49:46.541Z,72.20
2022-08-06T11:52:42.947Z,69.80
2022-08-06T11:55:22.585Z,69.50
2022-08-06T11:58:19.167Z,70.80
2022-08-06T12:01:03.402Z,70.80
2022-08-06T12:03:52.294Z,71.20
2022-08-06T12:06:26.227Z,71.20
2022-08-06T12:09:09.172Z,69.60
2022-08-06T12:11:38.637Z,65.80
2022-08-06T12:14:32.714Z,66.40
2022-08-06T12:16:54.600Z,66.60
2022-08-06T12:19:26.277Z,65.80
2022-08-06T12:21:57.157Z,67.90
2022-08-06T12:24:45.283Z,68.40
2022-08-06T12:27:16.230Z,69.00
2022-08-06T12:29:44.206Z,68.70
2022-08-06T12:32:24.756Z,68.00
2022-08-06T12:34:58.889Z,68.60
2022-08-06T12:37:41.545Z,68.30
2022-08-06T12:40:37.308Z,67.60
2022-08-06T12:43:14.356Z,66.70
2022-08-06T12:46:06.805Z,66.50
2022-08-06T12:48:30.477Z,66.30
2022-08-06T12:51:11.674Z,66.10
2022-08-06T12:53:58.797Z,64.90
2022-08-06T12:56:30.808Z,64.10
2022-08-06T12:59:02.074Z,62.10
2022-08-06T13:02:08.932Z,63.40
2022-08-06T13:04:19.630Z,63.20
2022-08-06T13:06:48.846Z,64.70
2022-08-06T13:09:18.074Z,65.80
2022-08-06T13:11:51.676Z,66.70
2022-08-06T13:14:20.373Z,66.90
2022-08-06T13:16:57.315Z,68.10
2022-08-06T13:19:32.569Z,67.00
2022-08-06T13:22:08.521Z,65.40
2022-08-06T13:24:36.230Z,64.30
2022-08-06T13:27:06.041Z,63.40
2022-08-06T13:30:34.711Z,62.70
2022-08-06T13:32:33.084Z,63.20
2022-08-06T13:35:11.373Z,63.80
2022-08-06T13:37:55.836Z,64.00
2022-08-06T13:40:57.527Z,64.50
2022-08-06T13:43:53.699Z,64.70
2022-08-06T13:46:28.195Z,65.40
2022-08-06T13:48:58.908Z,65.80
2022-08-06T13:51:27.875Z,66.70
2022-08-06T13:53:57.123Z,65.90
2022-08-06T13:56:28.827Z,65.40
2022-08-06T13:58:59.889Z,64.00
2022-08-06T14:01:44.108Z,64.60
2022-08-06T14:04:14.250Z,64.40
2022-08-06T14:06:44.612Z,64.40
2022-08-06T14:09:19.367Z,64.40
2022-08-06T14:11:56.346Z,65.10
2022-08-06T14:14:27.511Z,65.60
2022-08-06T14:16:56.585Z,65.20
2022-08-06T14:20:08.859Z,65.60
2022-08-06T14:22:10.448Z,65.40
2022-08-06T14:24:39.435Z,65.00
2022-08-06T14:27:15.686Z,64.00
2022-08-06T14:30:29.601Z,64.30
2022-08-06T14:32:32.771Z,64.40
2022-08-06T14:35:04.360Z,64.50
2022-08-06T14:37:50.264Z,63.40
2022-08-06T14:40:49.776Z,63.30
2022-08-06T14:43:55.118Z,63.70
2022-08-06T14:46:26.242Z,64.20
2022-08-06T14:48:57.718Z,64.50
2022-08-06T14:51:37.359Z,64.00
2022-08-06T14:54:13.925Z,64.50
2022-08-06T14:56:45.469Z,65.00
2022-08-06T14:59:12.693Z,65.50
2022-08-06T15:01:40.357Z,65.80
2022-08-06T15:04:22.375Z,66.00
2022-08-06T15:06:54.072Z,66.30
2022-08-06T15:10:04.383Z,66.50
2022-08-06T15:12:08.456Z,66.20
2022-08-06T15:14:38.620Z,65.30
2022-08-06T15:17:49.263Z,66.30
2022-08-06T15:19:57.362Z,65.40
2022-08-06T15:22:31.317Z,64.90
2022-08-06T15:25:17.480Z,63.20
2022-08-06T15:27:50.139Z,63.70
2022-08-06T15:30:18.586Z,63.90
2022-08-06T15:32:56.331Z,63.90
2022-08-06T15:35:38.316Z,64.20
2022-08-06T15:38:10.989Z,62.00
2022-08-06T15:40:39.479Z,62.30
2022-08-06T15:43:09.567Z,61.40
2022-08-06T15:45:51.172Z,59.50
2022-08-06T15:48:28.282Z,59.30
2022-08-06T15:51:27.939Z,59.70
2022-08-06T15:53:54.505Z,60.00
2022-08-06T15:56:38.659Z,60.10
2022-08-06T15:59:11.965Z,59.00
2022-08-06T16:01:52.720Z,58.70
2022-08-06T16:04:26.284Z,58.70
2022-08-06T16:06:54.859Z,58.70
2022-08-06T16:09:27.200Z,59.40
2022-08-06T16:11:56.843Z,59.90
2022-08-06T16:14:33.195Z,60.40
2022-08-06T16:17:06.182Z,60.00
2022-08-06T16:19:34.009Z,60.60
2022-08-06T16:22:17.588Z,60.10
2022-08-06T16:24:44.597Z,59.60
2022-08-06T16:27:11.686Z,60.50
2022-08-06T16:29:41.748Z,61.10
2022-08-06T16:32:09.747Z,61.10
2022-08-06T16:34:37.086Z,61.30
2022-08-06T16:37:24.234Z,61.90
2022-08-06T16:39:57.322Z,62.20
2022-08-06T16:42:29.733Z,62.80
2022-08-06T16:45:01.205Z,62.70
2022-08-06T16:48:21.289Z,63.00
2022-08-06T16:50:25.871Z,63.10
2022-08-06T16:55:42.585Z,63.20
2022-08-06T16:58:16.849Z,63.40
2022-08-06T17:01:00.021Z,63.00
2022-08-06T17:03:46.246Z,63.10
2022-08-06T17:06:17.681Z,63.30
2022-08-06T17:11:45.382Z,63.20
2022-08-06T17:14:17.028Z,63.40
2022-08-06T17:16:47.456Z,63.50
2022-08-06T17:19:17.459Z,63.40
2022-08-06T17:21:58.054Z,63.40
2022-08-06T17:27:17.804Z,64.00
2022-08-06T17:32:54.531Z,64.30
2022-08-06T17:35:22.135Z,64.20
2022-08-06T17:37:51.326Z,64.00
2022-08-06T17:40:32.463Z,63.80
2022-08-06T17:43:12.659Z,64.30
2022-08-06T17:45:52.700Z,64.30
2022-08-06T17:48:31.254Z,64.20
2022-08-06T17:51:09.593Z,64.20
2022-08-06T17:53:53.659Z,64.30
2022-08-06T17:56:29.851Z,64.10
2022-08-06T17:59:11.077Z,63.90
2022-08-06T18:01:45.713Z,64.40
2022-08-06T18:04:22.207Z,64.20
2022-08-06T18:06:58.834Z,64.50
2022-08-06T18:10:08.694Z,64.30
2022-08-06T18:12:18.488Z,64.80
2022-08-06T18:14:52.162Z,64.70
2022-08-06T18:17:19.350Z,65.20
2022-08-06T18:19:46.217Z,65.50
2022-08-06T18:22:23.117Z,65.20
2022-08-06T18:24:53.504Z,65.50
2022-08-06T18:27:54.199Z,66.10
2022-08-06T18:30:11.678Z,67.20
2022-08-06T18:32:58.243Z,67.00
2022-08-06T18:35:27.287Z,67.40
2022-08-06T18:38:05.922Z,67.90
2022-08-06T18:40:38.681Z,68.20
2022-08-06T18:43:08.719Z,68.40
2022-08-06T18:45:36.868Z,68.50
2022-08-06T18:48:07.117Z,68.70
2022-08-06T18:50:34.848Z,68.90
2022-08-06T18:53:02.919Z,69.00
2022-08-06T18:55:54.023Z,69.40
2022-08-06T18:58:18.290Z,69.70
2022-08-06T19:00:52.675Z,70.10
2022-08-06T19:03:19.842Z,70.30
2022-08-06T19:06:04.587Z,70.60
2022-08-06T19:08:31.274Z,70.90
2022-08-06T19:11:00.817Z,71.30
2022-08-06T19:13:57.847Z,71.70
2022-08-06T19:16:19.278Z,71.80
2022-08-06T19:18:51.296Z,72.10
2022-08-06T19:21:25.049Z,72.30
2022-08-06T19:24:02.102Z,72.40
2022-08-06T19:26:34.290Z,72.70
2022-08-06T19:29:01.959Z,72.80
2022-08-06T19:31:42.323Z,72.80
2022-08-06T19:34:15.608Z,73.00
2022-08-06T19:36:49.433Z,73.30
2022-08-06T19:39:52.904Z,73.40
2022-08-06T19:42:06.517Z,73.70
2022-08-06T19:45:04.661Z,73.60
2022-08-06T19:47:29.272Z,73.60
2022-08-06T19:49:55.917Z,74.80
2022-08-06T19:52:27.140Z,74.00
2022-08-06T19:54:56.658Z,74.20
2022-08-06T19:57:26.589Z,74.40
2022-08-06T20:00:52.440Z,74.50
2022-08-06T20:02:50.869Z,73.40
2022-08-06T20:05:21.746Z,74.50
2022-08-06T20:08:10.581Z,74.60
2022-08-06T20:10:39.027Z,74.90
2022-08-06T20:13:09.055Z,75.00
2022-08-06T20:15:41.505Z,75.20
2022-08-06T20:18:13.533Z,75.50
2022-08-06T20:20:41.698Z,75.60
2022-08-06T20:23:12.798Z,75.70
2022-08-06T20:26:08.274Z,75.80
2022-08-06T20:29:09.298Z,76.10
2022-08-06T20:31:21.881Z,76.30
2022-08-06T20:33:59.245Z,76.40
2022-08-06T20:36:28.362Z,76.60
2022-08-06T20:38:55.408Z,76.70
2022-08-06T20:41:56.579Z,76.80
2022-08-06T20:44:08.987Z,77.10
2022-08-06T20:49:29.463Z,78.10
2022-08-06T20:52:17.683Z,78.90
2022-08-06T20:54:51.334Z,79.50
2022-08-06T20:57:26.911Z,79.70
2022-08-06T20:59:57.756Z,79.90
2022-08-06T21:02:25.702Z,79.80
2022-08-06T21:05:14.848Z,80.20
2022-08-06T21:07:56.634Z,80.10
2022-08-06T21:10:25.302Z,80.20
2022-08-06T21:13:01.121Z,80.00
2022-08-06T21:15:54.764Z,80.20
2022-08-06T21:18:21.248Z,80.40
2022-08-06T21:20:50.679Z,80.50
2022-08-06T21:23:41.892Z,80.60
2022-08-06T21:26:07.971Z,80.60
2022-08-06T21:28:38.303Z,80.90
2022-08-06T21:31:06.379Z,81.10
2022-08-06T21:33:34.775Z,81.10
2022-08-06T21:36:14.936Z,81.30
2022-08-06T21:38:45.979Z,81.40
2022-08-06T21:41:54.293Z,82.30
2022-08-06T21:44:15.196Z,81.90
2022-08-06T21:46:44.699Z,82.30
2022-08-06T21:49:21.561Z,82.50
2022-08-06T21:52:04.742Z,82.70
2022-08-06T21:54:31.711Z,82.90
2022-08-06T21:57:02.279Z,83.20
2022-08-06T21:59:46.475Z,83.20
2022-08-06T22:02:21.533Z,83.60
2022-08-06T22:05:00.731Z,84.60
2022-08-06T22:08:06.736Z,84.10
2022-08-06T22:10:31.935Z,84.40
2022-08-06T22:13:12.328Z,84.60
2022-08-06T22:15:47.096Z,84.80
2022-08-06T22:18:19.011Z,85.10
2022-08-06T22:20:55.495Z,85.30
2022-08-06T22:23:24.173Z,85.40
2022-08-06T22:25:51.640Z,85.60
2022-08-06T22:28:23.826Z,85.90
2022-08-06T22:31:01.662Z,86.00
2022-08-06T22:33:45.832Z,86.20
2022-08-06T22:36:34.530Z,86.50
2022-08-06T22:39:05.806Z,87.10
2022-08-06T22:41:42.748Z,87.50
2022-08-06T22:44:30.838Z,87.90
2022-08-06T22:46:57.830Z,88.70
2022-08-06T22:49:24.954Z,88.70
2022-08-06T22:51:51.824Z,89.00
2022-08-06T22:54:29.818Z,88.60
2022-08-06T22:57:05.907Z,88.60
2022-08-06T23:00:11.475Z,89.10
2022-08-06T23:02:20.378Z,89.30
2022-08-06T23:04:49.341Z,89.70
2022-08-06T23:07:21.471Z,90.00
2022-08-06T23:09:53.887Z,90.10
2022-08-06T23:12:25.426Z,90.20
2022-08-06T23:14:59.020Z,90.40
2022-08-06T23:17:25.978Z,90.40
2022-08-06T23:20:11.645Z,90.60
2022-08-06T23:22:38.874Z,90.70
2022-08-06T23:26:00.269Z,90.70
2022-08-06T23:27:55.575Z,90.60
2022-08-06T23:30:25.098Z,90.60
2022-08-06T23:32:53.232Z,90.60
2022-08-06T23:35:35.165Z,90.70
2022-08-06T23:38:05.568Z,90.70
2022-08-06T23:40:52.038Z,90.60
2022-08-06T23:43:19.593Z,90.80
2022-08-06T23:45:47.427Z,91.00
2022-08-06T23:48:16.881Z,91.20
2022-08-06T23:50:53.308Z,91.30
2022-08-06T23:54:05.438Z,91.40
2022-08-06T23:56:11.219Z,91.50
2022-08-06T23:58:48.495Z,91.50
